createdAt,value
2023-03-30T00:02:10.551Z,6.37
2023-03-30T00:04:38.369Z,5.37
2023-03-30T00:07:08.284Z,5.50
2023-03-30T00:09:42.285Z,7.40
2023-03-30T00:12:09.949Z,7.03
2023-03-30T00:14:37.959Z,6.00
2023-03-30T00:17:05.661Z,5.83
2023-03-30T00:19:33.178Z,6.93
2023-03-30T00:22:00.811Z,8.37
2023-03-30T00:24:29.772Z,6.70
2023-03-30T00:26:59.804Z,6.97
2023-03-30T00:29:27.597Z,5.80
2023-03-30T00:31:55.937Z,7.30
2023-03-30T00:34:24.546Z,5.93
2023-03-30T00:36:53.329Z,6.53
2023-03-30T00:39:22.981Z,6.43
2023-03-30T00:41:54.525Z,6.43
2023-03-30T00:44:59.326Z,6.67
2023-03-30T00:47:27.139Z,6.17
2023-03-30T00:49:54.872Z,5.10
2023-03-30T00:52:25.057Z,6.97
2023-03-30T00:54:56.216Z,6.50
2023-03-30T00:57:27.765Z,6.53
2023-03-30T00:59:57.383Z,6.20
2023-03-30T01:02:25.608Z,6.60
2023-03-30T01:04:57.433Z,5.87
2023-03-30T01:07:25.485Z,6.30
2023-03-30T01:09:53.664Z,5.57
2023-03-30T01:12:21.504Z,5.53
2023-03-30T01:14:50.783Z,5.00
2023-03-30T01:17:28.471Z,5.27
2023-03-30T01:20:38.999Z,5.60
2023-03-30T01:23:29.313Z,5.67
2023-03-30T01:26:23.369Z,5.73
2023-03-30T01:29:00.408Z,5.00
2023-03-30T01:31:49.969Z,5.87
2023-03-30T01:34:47.985Z,5.43
2023-03-30T01:37:37.631Z,4.67
2023-03-30T01:40:11.216Z,5.53
2023-03-30T01:42:46.205Z,6.30
2023-03-30T01:45:20.702Z,5.37
2023-03-30T01:47:54.310Z,5.80
2023-03-30T01:50:27.505Z,4.90
2023-03-30T01:53:01.217Z,5.20
2023-03-30T01:55:36.249Z,4.97
2023-03-30T01:58:11.654Z,5.10
2023-03-30T02:00:43.707Z,5.03
2023-03-30T02:03:15.074Z,4.30
2023-03-30T02:05:44.046Z,4.63
2023-03-30T02:08:16.296Z,5.53
2023-03-30T02:10:46.976Z,4.80
2023-03-30T02:13:16.934Z,5.37
2023-03-30T02:15:48.452Z,4.53
2023-03-30T02:18:16.143Z,5.40
2023-03-30T02:20:43.788Z,5.17
2023-03-30T02:23:11.423Z,5.37
2023-03-30T02:25:40.425Z,5.20
2023-03-30T02:28:10.065Z,3.70
2023-03-30T02:30:41.851Z,4.73
2023-03-30T02:33:15.770Z,4.67
2023-03-30T02:35:57.529Z,4.87
2023-03-30T02:38:54.237Z,3.80
2023-03-30T02:41:35.784Z,4.10
2023-03-30T02:44:17.289Z,3.93
2023-03-30T02:47:06.073Z,4.17
2023-03-30T02:49:51.906Z,4.80
2023-03-30T02:52:34.106Z,3.73
2023-03-30T02:55:10.561Z,4.93
2023-03-30T02:57:52.816Z,4.53
2023-03-30T03:00:45.538Z,4.80
2023-03-30T03:03:24.122Z,4.47
2023-03-30T03:05:54.700Z,6.63
2023-03-30T03:08:30.886Z,4.20
2023-03-30T03:10:58.852Z,4.40
2023-03-30T03:13:30.806Z,4.07
2023-03-30T03:16:04.066Z,4.10
2023-03-30T03:18:32.677Z,3.20
2023-03-30T03:21:00.400Z,5.10
2023-03-30T03:23:28.410Z,4.13
2023-03-30T03:25:57.492Z,4.10
2023-03-30T03:28:25.220Z,4.00
2023-03-30T03:30:58.407Z,3.70
2023-03-30T03:33:28.539Z,4.00
2023-03-30T03:36:05.805Z,4.50
2023-03-30T03:38:36.208Z,4.20
2023-03-30T03:41:04.082Z,4.13
2023-03-30T03:43:33.074Z,4.00
2023-03-30T03:46:00.792Z,3.57
2023-03-30T03:48:29.766Z,3.50
2023-03-30T03:50:59.678Z,4.70
2023-03-30T03:53:32.544Z,3.23
2023-03-30T03:56:04.352Z,3.93
2023-03-30T03:58:32.644Z,3.93
2023-03-30T04:01:01.544Z,3.60
2023-03-30T04:03:31.078Z,4.30
2023-03-30T04:06:00.359Z,3.73
2023-03-30T04:08:28.909Z,3.60
2023-03-30T04:11:07.902Z,3.80
2023-03-30T04:13:51.372Z,4.50
2023-03-30T04:16:32.920Z,3.87
2023-03-30T04:19:27.703Z,4.40
2023-03-30T04:22:32.983Z,4.00
2023-03-30T04:25:22.718Z,3.90
2023-03-30T04:28:09.132Z,3.53
2023-03-30T04:31:05.372Z,3.90
2023-03-30T04:34:04.973Z,4.10
2023-03-30T04:37:00.102Z,3.90
2023-03-30T04:39:34.018Z,3.50
2023-03-30T04:42:15.573Z,3.50
2023-03-30T04:44:51.197Z,4.53
2023-03-30T04:47:35.065Z,3.80
2023-03-30T04:50:22.816Z,3.90
2023-03-30T04:53:10.610Z,3.30
2023-03-30T04:55:56.569Z,3.80
2023-03-30T04:58:36.343Z,3.27
2023-03-30T05:01:20.876Z,3.73
2023-03-30T05:04:04.383Z,3.37
2023-03-30T05:06:50.810Z,3.30
2023-03-30T05:09:33.809Z,3.33
2023-03-30T05:12:24.297Z,3.50
2023-03-30T05:15:12.898Z,3.60
2023-03-30T05:17:50.969Z,3.03
2023-03-30T05:20:41.784Z,3.50
2023-03-30T05:23:32.619Z,3.57
2023-03-30T05:26:18.384Z,3.60
2023-03-30T05:29:05.752Z,2.80
2023-03-30T05:31:40.786Z,3.30
2023-03-30T05:34:21.354Z,3.70
2023-03-30T05:36:56.886Z,3.43
2023-03-30T05:39:36.868Z,4.23
2023-03-30T05:42:24.417Z,3.07
2023-03-30T05:45:24.061Z,3.27
2023-03-30T05:48:23.577Z,3.60
2023-03-30T05:51:23.806Z,2.60
2023-03-30T05:54:03.442Z,3.00
2023-03-30T05:56:43.259Z,3.50
2023-03-30T05:59:44.469Z,3.27
2023-03-30T06:02:28.515Z,3.30
2023-03-30T06:05:02.226Z,3.83
2023-03-30T06:07:30.498Z,3.73
2023-03-30T06:10:00.643Z,3.80
2023-03-30T06:12:29.621Z,4.53
2023-03-30T06:14:58.572Z,4.13
2023-03-30T06:17:33.834Z,3.70
2023-03-30T06:20:01.425Z,3.77
2023-03-30T06:22:31.394Z,3.50
2023-03-30T06:25:20.425Z,3.93
2023-03-30T06:27:48.286Z,3.60
2023-03-30T06:30:17.577Z,3.30
2023-03-30T06:32:50.834Z,3.60
2023-03-30T06:35:38.768Z,2.97
2023-03-30T06:38:06.689Z,2.90
2023-03-30T06:40:34.258Z,2.20
2023-03-30T06:43:01.932Z,2.30
2023-03-30T06:45:50.827Z,1.60
2023-03-30T06:48:19.666Z,2.03
2023-03-30T06:50:51.399Z,2.93
2023-03-30T06:53:23.934Z,2.20
2023-03-30T06:55:53.402Z,2.67
2023-03-30T06:58:21.908Z,2.27
2023-03-30T07:00:51.651Z,2.10
2023-03-30T07:03:22.901Z,2.20
2023-03-30T07:06:07.713Z,2.10
2023-03-30T07:08:38.611Z,2.70
2023-03-30T07:11:07.711Z,2.63
2023-03-30T07:13:38.537Z,2.77
2023-03-30T07:16:08.373Z,2.40
2023-03-30T07:19:04.488Z,2.03
2023-03-30T07:21:32.383Z,1.87
2023-03-30T07:24:01.784Z,2.87
2023-03-30T07:26:36.650Z,2.90
2023-03-30T07:29:08.020Z,2.43
2023-03-30T07:31:39.226Z,2.40
2023-03-30T07:34:09.768Z,2.67
2023-03-30T07:36:42.351Z,2.40
2023-03-30T07:39:11.901Z,3.07
2023-03-30T07:41:41.963Z,2.80
2023-03-30T07:44:09.684Z,2.93
2023-03-30T07:46:38.797Z,2.47
2023-03-30T07:49:08.186Z,2.20
2023-03-30T07:51:35.869Z,2.10
2023-03-30T07:54:10.632Z,2.17
2023-03-30T07:57:11.459Z,2.43
2023-03-30T07:59:39.741Z,2.70
2023-03-30T08:02:18.950Z,2.37
2023-03-30T08:04:52.810Z,2.33
2023-03-30T08:07:28.869Z,2.23
2023-03-30T08:10:03.798Z,2.20
2023-03-30T08:12:32.061Z,3.00
2023-03-30T08:15:01.214Z,2.10
2023-03-30T08:17:33.541Z,2.67
2023-03-30T08:20:01.842Z,2.50
2023-03-30T08:22:29.596Z,2.67
2023-03-30T08:24:57.283Z,2.53
2023-03-30T08:27:24.837Z,2.40
2023-03-30T08:29:54.201Z,2.67
2023-03-30T08:32:21.860Z,2.03
2023-03-30T08:34:51.604Z,2.60
2023-03-30T08:37:19.289Z,2.33
2023-03-30T08:39:47.010Z,2.97
2023-03-30T08:42:41.374Z,1.83
2023-03-30T08:45:10.983Z,2.10
2023-03-30T08:47:43.013Z,2.00
2023-03-30T08:50:19.027Z,2.20
2023-03-30T08:52:47.857Z,2.50
2023-03-30T08:55:24.652Z,2.70
2023-03-30T08:57:59.426Z,1.90
2023-03-30T09:00:34.215Z,2.00
2023-03-30T09:03:11.536Z,1.80
2023-03-30T09:05:46.729Z,2.30
2023-03-30T09:08:20.136Z,2.30
2023-03-30T09:10:52.528Z,2.40
2023-03-30T09:13:24.083Z,3.57
2023-03-30T09:16:02.321Z,2.40
2023-03-30T09:18:33.097Z,2.27
2023-03-30T09:21:06.409Z,2.50
2023-03-30T09:23:35.872Z,2.17
2023-03-30T09:26:15.333Z,2.67
2023-03-30T09:28:50.805Z,3.40
2023-03-30T09:31:28.098Z,2.37
2023-03-30T09:34:01.151Z,2.97
2023-03-30T09:36:39.072Z,4.00
2023-03-30T09:39:17.813Z,2.40
2023-03-30T09:42:01.162Z,3.10
2023-03-30T09:44:35.909Z,3.40
2023-03-30T09:47:09.191Z,2.10
2023-03-30T09:49:42.662Z,3.53
2023-03-30T09:52:22.168Z,3.27
2023-03-30T09:54:49.927Z,2.63
2023-03-30T09:57:26.257Z,3.13
2023-03-30T09:59:56.058Z,3.00
2023-03-30T10:02:27.700Z,2.80
2023-03-30T10:05:04.395Z,2.90
2023-03-30T10:07:38.172Z,2.50
2023-03-30T10:10:17.810Z,2.93
2023-03-30T10:12:46.266Z,3.27
2023-03-30T10:15:18.501Z,2.80
2023-03-30T10:17:54.206Z,3.40
2023-03-30T10:20:28.035Z,2.67
2023-03-30T10:23:01.747Z,3.10
2023-03-30T10:25:32.110Z,2.33
2023-03-30T10:28:04.627Z,2.53
2023-03-30T10:30:33.521Z,2.67
2023-03-30T10:33:06.364Z,2.40
2023-03-30T10:35:36.626Z,3.50
2023-03-30T10:38:08.726Z,3.80
2023-03-30T10:40:38.874Z,3.40
2023-03-30T10:43:14.417Z,3.60
2023-03-30T10:45:46.606Z,2.80
2023-03-30T10:48:31.827Z,3.07
2023-03-30T10:51:08.688Z,3.17
2023-03-30T10:53:46.126Z,3.73
2023-03-30T10:56:24.850Z,3.07
2023-03-30T10:59:17.452Z,3.10
2023-03-30T11:02:01.259Z,3.00
2023-03-30T11:04:37.850Z,3.37
2023-03-30T11:07:14.878Z,3.07
2023-03-30T11:10:02.685Z,2.50
2023-03-30T11:12:40.226Z,2.60
2023-03-30T11:15:19.660Z,1.83
2023-03-30T11:17:57.339Z,1.50
2023-03-30T11:20:34.108Z,1.70
2023-03-30T11:23:17.067Z,1.73
2023-03-30T11:26:01.929Z,2.10
2023-03-30T11:28:46.278Z,1.80
2023-03-30T11:31:29.398Z,1.60
2023-03-30T11:34:11.484Z,2.50
2023-03-30T11:36:47.094Z,2.10
2023-03-30T11:39:31.039Z,1.90
2023-03-30T11:42:17.127Z,2.20
2023-03-30T11:44:45.081Z,2.20
2023-03-30T11:47:38.548Z,2.17
2023-03-30T11:50:20.886Z,2.20
2023-03-30T11:53:00.755Z,2.50
2023-03-30T11:55:55.226Z,2.07
2023-03-30T11:58:33.805Z,2.03
2023-03-30T12:01:17.348Z,2.47
2023-03-30T12:03:50.692Z,2.40
2023-03-30T12:06:31.214Z,2.30
2023-03-30T12:09:25.555Z,2.10
2023-03-30T12:11:58.726Z,2.70
2023-03-30T12:14:45.979Z,3.30
2023-03-30T12:17:26.841Z,2.17
2023-03-30T12:19:59.404Z,2.87
2023-03-30T12:22:35.507Z,1.80
2023-03-30T12:25:16.228Z,2.13
2023-03-30T12:27:59.663Z,2.37
2023-03-30T12:30:31.886Z,2.63
2023-03-30T12:33:02.844Z,1.70
2023-03-30T12:35:58.079Z,1.63
2023-03-30T12:38:27.358Z,1.87
2023-03-30T12:41:14.159Z,2.00
2023-03-30T12:44:03.431Z,1.50
2023-03-30T12:46:41.851Z,2.23
2023-03-30T12:49:16.429Z,2.03
2023-03-30T12:52:03.856Z,1.87
2023-03-30T12:54:53.796Z,1.57
2023-03-30T12:57:34.651Z,2.10
2023-03-30T13:00:30.953Z,1.60
2023-03-30T13:03:12.431Z,1.93
2023-03-30T13:05:42.546Z,1.90
2023-03-30T13:08:22.301Z,3.40
2023-03-30T13:10:50.005Z,1.40
2023-03-30T13:13:23.100Z,2.80
2023-03-30T13:15:52.848Z,1.53
2023-03-30T13:18:54.043Z,1.73
2023-03-30T13:21:26.098Z,1.90
2023-03-30T13:24:04.195Z,1.80
2023-03-30T13:26:42.712Z,1.60
2023-03-30T13:29:14.192Z,2.53
2023-03-30T13:32:04.017Z,1.97
2023-03-30T13:35:10.377Z,1.47
2023-03-30T13:37:54.460Z,1.77
2023-03-30T13:40:38.646Z,1.60
2023-03-30T13:43:20.254Z,1.90
2023-03-30T13:45:58.241Z,1.60
2023-03-30T13:48:47.381Z,2.13
2023-03-30T13:51:20.586Z,1.40
2023-03-30T13:53:52.888Z,2.00
2023-03-30T13:56:22.484Z,1.57
2023-03-30T13:58:58.377Z,2.60
2023-03-30T14:01:26.521Z,2.00
2023-03-30T14:03:56.453Z,1.80
2023-03-30T14:06:27.300Z,1.70
2023-03-30T14:09:12.492Z,2.00
2023-03-30T14:11:44.595Z,1.70
2023-03-30T14:14:19.069Z,1.70
2023-03-30T14:16:47.034Z,2.17
2023-03-30T14:19:23.853Z,3.87
2023-03-30T14:21:56.957Z,2.40
2023-03-30T14:24:31.478Z,3.00
2023-03-30T14:27:07.214Z,2.07
2023-03-30T14:29:35.396Z,2.57
2023-03-30T14:32:09.196Z,2.23
2023-03-30T14:34:38.258Z,1.90
2023-03-30T14:37:11.029Z,1.77
2023-03-30T14:39:42.248Z,1.43
2023-03-30T14:42:17.461Z,1.60
2023-03-30T14:44:46.909Z,1.60
2023-03-30T14:47:15.781Z,1.80
2023-03-30T14:49:44.781Z,1.33
2023-03-30T14:52:19.951Z,1.73
2023-03-30T14:55:02.533Z,1.40
2023-03-30T14:57:38.035Z,1.80
2023-03-30T15:00:21.324Z,1.80
2023-03-30T15:02:52.662Z,1.80
2023-03-30T15:05:22.281Z,2.00
2023-03-30T15:07:55.516Z,1.30
2023-03-30T15:10:26.509Z,2.30
2023-03-30T15:12:57.681Z,1.80
2023-03-30T15:15:28.764Z,2.17
2023-03-30T15:17:57.333Z,2.40
2023-03-30T15:20:28.009Z,3.20
2023-03-30T15:22:57.447Z,1.90
2023-03-30T15:25:32.252Z,2.20
2023-03-30T15:28:04.853Z,1.67
2023-03-30T15:30:36.483Z,2.40
2023-03-30T15:33:05.782Z,1.63
2023-03-30T15:35:35.596Z,1.97
2023-03-30T15:38:15.078Z,2.40
2023-03-30T15:40:47.519Z,2.00
2023-03-30T15:43:18.194Z,2.80
2023-03-30T15:45:49.062Z,2.03
2023-03-30T15:48:20.044Z,2.37
2023-03-30T15:50:53.805Z,2.30
2023-03-30T15:53:36.600Z,1.60
2023-03-30T15:56:06.380Z,1.73
2023-03-30T15:58:35.006Z,1.80
2023-03-30T16:01:03.895Z,2.03
2023-03-30T16:03:39.204Z,1.97
2023-03-30T16:06:07.969Z,1.83
2023-03-30T16:08:41.924Z,2.00
2023-03-30T16:11:10.909Z,1.70
2023-03-30T16:13:42.032Z,1.53
2023-03-30T16:16:11.083Z,1.37
2023-03-30T16:18:44.566Z,1.93
2023-03-30T16:21:13.331Z,1.60
2023-03-30T16:23:42.532Z,1.47
2023-03-30T16:26:12.131Z,1.17
2023-03-30T16:28:42.567Z,1.57
2023-03-30T16:31:18.974Z,1.73
2023-03-30T16:33:46.622Z,1.57
2023-03-30T16:36:16.291Z,1.87
2023-03-30T16:38:49.901Z,1.90
2023-03-30T16:41:20.570Z,1.40
2023-03-30T16:43:48.632Z,1.53
2023-03-30T16:46:17.799Z,1.67
2023-03-30T16:48:46.639Z,2.17
2023-03-30T16:51:16.244Z,2.40
2023-03-30T16:53:43.757Z,2.00
2023-03-30T16:56:17.274Z,3.07
2023-03-30T16:58:45.167Z,3.70
2023-03-30T17:01:15.794Z,3.33
2023-03-30T17:03:43.396Z,5.27
2023-03-30T17:06:10.958Z,4.20
2023-03-30T17:08:43.038Z,2.30
2023-03-30T17:11:13.353Z,3.00
2023-03-30T17:13:43.112Z,2.10
2023-03-30T17:16:13.761Z,2.80
2023-03-30T17:18:41.342Z,2.70
2023-03-30T17:21:09.648Z,2.30
2023-03-30T17:23:37.198Z,3.37
2023-03-30T17:26:04.826Z,2.37
2023-03-30T17:28:34.135Z,2.23
2023-03-30T17:31:05.532Z,5.53
2023-03-30T17:33:35.987Z,2.60
2023-03-30T17:36:06.324Z,3.23
2023-03-30T17:38:33.825Z,2.53
2023-03-30T17:41:01.559Z,2.23
2023-03-30T17:43:29.187Z,1.87
2023-03-30T17:45:56.759Z,1.67
2023-03-30T17:48:26.064Z,2.07
2023-03-30T17:50:53.775Z,2.37
2023-03-30T17:53:23.365Z,2.37
2023-03-30T17:55:52.651Z,2.33
2023-03-30T17:58:22.564Z,1.70
2023-03-30T18:00:51.685Z,2.23
2023-03-30T18:03:21.256Z,2.03
2023-03-30T18:05:51.335Z,2.17
2023-03-30T18:08:22.365Z,2.33
2023-03-30T18:10:51.637Z,2.50
2023-03-30T18:13:22.185Z,2.53
2023-03-30T18:15:54.999Z,2.30
2023-03-30T18:18:26.013Z,1.53
2023-03-30T18:20:56.812Z,2.00
2023-03-30T18:23:35.046Z,2.13
2023-03-30T18:26:09.268Z,1.90
2023-03-30T18:28:40.539Z,1.90
2023-03-30T18:31:09.119Z,1.93
2023-03-30T18:33:40.473Z,2.17
2023-03-30T18:36:13.220Z,2.00
2023-03-30T18:38:42.258Z,2.10
2023-03-30T18:41:12.750Z,2.33
2023-03-30T18:43:40.428Z,2.43
2023-03-30T18:46:10.332Z,2.07
2023-03-30T18:48:37.891Z,2.53
2023-03-30T18:51:07.121Z,2.10
2023-03-30T18:53:36.849Z,2.47
2023-03-30T18:56:04.676Z,3.10
2023-03-30T18:58:35.897Z,2.23
2023-03-30T19:01:05.294Z,2.33
2023-03-30T19:03:33.200Z,2.40
2023-03-30T19:06:01.348Z,2.47
2023-03-30T19:08:29.216Z,2.57
2023-03-30T19:11:01.261Z,2.83
2023-03-30T19:13:32.030Z,2.90
2023-03-30T19:16:06.618Z,2.63
2023-03-30T19:18:38.500Z,2.30
2023-03-30T19:21:13.704Z,2.80
2023-03-30T19:23:45.797Z,2.33
2023-03-30T19:26:23.746Z,2.50
2023-03-30T19:28:51.614Z,2.93
2023-03-30T19:31:19.389Z,3.00
2023-03-30T19:33:47.132Z,2.13
2023-03-30T19:36:14.709Z,1.90
2023-03-30T19:38:43.781Z,2.00
2023-03-30T19:41:11.452Z,1.77
2023-03-30T19:43:40.394Z,1.77
2023-03-30T19:46:08.632Z,1.80
2023-03-30T19:48:36.355Z,1.90
2023-03-30T19:51:04.224Z,2.13
2023-03-30T19:53:32.160Z,1.90
2023-03-30T19:55:59.701Z,2.00
2023-03-30T19:58:27.356Z,1.70
2023-03-30T20:00:57.370Z,1.60
2023-03-30T20:03:26.605Z,1.70
2023-03-30T20:05:54.453Z,2.20
2023-03-30T20:08:24.765Z,2.07
2023-03-30T20:10:56.618Z,3.00
2023-03-30T20:13:27.239Z,2.03
2023-03-30T20:16:03.415Z,2.07
2023-03-30T20:18:32.136Z,1.93
2023-03-30T20:21:04.182Z,1.90
2023-03-30T20:23:32.145Z,1.70
2023-03-30T20:26:04.198Z,1.97
2023-03-30T20:28:32.357Z,2.37
2023-03-30T20:31:01.669Z,2.07
2023-03-30T20:33:30.765Z,2.03
2023-03-30T20:35:58.500Z,2.10
2023-03-30T20:38:26.223Z,2.20
2023-03-30T20:40:57.488Z,2.00
2023-03-30T20:43:26.502Z,2.20
2023-03-30T20:46:02.138Z,2.90
2023-03-30T20:48:33.758Z,2.40
2023-03-30T20:51:05.669Z,3.00
2023-03-30T20:53:34.787Z,2.10
2023-03-30T20:56:03.458Z,3.00
2023-03-30T20:58:31.415Z,2.23
2023-03-30T21:01:00.015Z,2.27
2023-03-30T21:03:29.146Z,2.40
2023-03-30T21:06:03.318Z,3.00
2023-03-30T21:08:32.315Z,2.83
2023-03-30T21:11:00.539Z,2.80
2023-03-30T21:13:28.380Z,2.30
2023-03-30T21:15:58.309Z,2.80
2023-03-30T21:18:29.356Z,2.63
2023-03-30T21:20:57.143Z,2.83
2023-03-30T21:23:26.809Z,2.73
2023-03-30T21:25:57.290Z,3.80
2023-03-30T21:28:27.069Z,2.70
2023-03-30T21:30:54.955Z,3.37
2023-03-30T21:33:23.319Z,2.87
2023-03-30T21:35:51.564Z,2.57
2023-03-30T21:38:20.876Z,2.83
2023-03-30T21:41:01.045Z,2.37
2023-03-30T21:43:35.725Z,2.80
2023-03-30T21:46:05.591Z,2.43
2023-03-30T21:48:43.203Z,2.30
2023-03-30T21:51:15.087Z,3.07
2023-03-30T21:53:59.629Z,2.23
2023-03-30T21:56:38.488Z,2.10
2023-03-30T21:59:06.242Z,2.60
2023-03-30T22:01:45.435Z,3.20
2023-03-30T22:04:13.346Z,2.37
2023-03-30T22:06:41.558Z,2.43
2023-03-30T22:09:09.135Z,1.87
2023-03-30T22:11:38.054Z,2.43
2023-03-30T22:14:08.465Z,2.03
2023-03-30T22:16:36.762Z,2.30
2023-03-30T22:19:05.166Z,2.50
2023-03-30T22:21:35.454Z,2.67
2023-03-30T22:24:04.577Z,2.70
2023-03-30T22:26:32.475Z,2.87
2023-03-30T22:29:01.291Z,2.00
2023-03-30T22:31:28.974Z,2.53
2023-03-30T22:33:56.934Z,2.90
2023-03-30T22:36:26.441Z,2.83
2023-03-30T22:38:54.034Z,2.53
2023-03-30T22:41:24.150Z,2.37
2023-03-30T22:43:52.746Z,3.00
2023-03-30T22:46:22.389Z,2.80
2023-03-30T22:48:51.651Z,2.20
2023-03-30T22:51:23.498Z,2.87
2023-03-30T22:53:51.365Z,2.70
2023-03-30T22:56:18.880Z,2.97
2023-03-30T22:58:47.701Z,2.50
2023-03-30T23:01:15.745Z,2.90
2023-03-30T23:03:44.804Z,2.83
2023-03-30T23:06:13.076Z,2.87
2023-03-30T23:08:40.659Z,2.50
2023-03-30T23:11:08.260Z,3.80
2023-03-30T23:13:38.399Z,3.00
2023-03-30T23:16:08.097Z,3.50
2023-03-30T23:18:36.053Z,2.83
2023-03-30T23:21:06.808Z,2.47
2023-03-30T23:23:35.663Z,2.73
2023-03-30T23:26:08.181Z,2.93
2023-03-30T23:28:37.221Z,2.70
2023-03-30T23:31:08.258Z,3.00
2023-03-30T23:33:35.848Z,3.00
2023-03-30T23:36:06.233Z,3.90
2023-03-30T23:38:34.176Z,3.27
2023-03-30T23:41:01.830Z,4.10
2023-03-30T23:43:29.518Z,2.67
2023-03-30T23:45:57.065Z,3.67
2023-03-30T23:48:24.703Z,4.20
2023-03-30T23:50:53.097Z,2.97
2023-03-30T23:53:21.925Z,3.37
2023-03-30T23:55:51.221Z,2.97
2023-03-30T23:58:23.241Z,2.87
